createdAt,value
2022-10-17T00:01:10.914Z,4.78
2022-10-17T00:06:16.099Z,4.87
2022-10-17T00:11:22.364Z,5.32
2022-10-17T00:16:26.543Z,5.32
2022-10-17T00:21:29.348Z,4.93
2022-10-17T00:26:33.901Z,4.90
2022-10-17T00:31:36.751Z,5.22
2022-10-17T00:36:39.579Z,5.53
2022-10-17T00:41:43.803Z,5.67
2022-10-17T00:46:46.489Z,5.30
2022-10-17T00:51:53.875Z,5.70
2022-10-17T00:56:58.499Z,9.63
2022-10-17T01:02:04.619Z,8.15
2022-10-17T01:07:07.330Z,7.63
2022-10-17T01:12:20.659Z,6.27
2022-10-17T01:17:35.957Z,5.40
2022-10-17T01:22:45.956Z,5.72
2022-10-17T01:28:11.373Z,5.73
2022-10-17T01:33:22.341Z,6.30
2022-10-17T01:38:31.909Z,6.40
2022-10-17T01:43:38.813Z,6.80
2022-10-17T01:48:45.994Z,5.40
2022-10-17T01:53:54.933Z,5.95
2022-10-17T01:59:03.170Z,5.32
2022-10-17T02:04:10.971Z,6.23
2022-10-17T02:09:22.938Z,5.32
2022-10-17T02:14:36.391Z,5.78
2022-10-17T02:19:56.115Z,5.80
2022-10-17T02:25:04.153Z,6.10
2022-10-17T02:30:12.493Z,6.05
2022-10-17T02:35:17.664Z,6.00
2022-10-17T02:40:23.875Z,5.27
2022-10-17T02:45:29.208Z,5.72
2022-10-17T02:50:42.728Z,6.05
2022-10-17T02:55:52.699Z,6.33
2022-10-17T03:00:55.612Z,6.53
2022-10-17T03:05:59.866Z,6.13
2022-10-17T03:11:02.675Z,5.97
2022-10-17T03:16:06.316Z,6.47
2022-10-17T03:21:10.388Z,6.13
2022-10-17T03:26:13.449Z,6.55
2022-10-17T03:31:18.134Z,6.60
2022-10-17T03:36:22.223Z,6.47
2022-10-17T03:41:24.976Z,6.30
2022-10-17T03:46:27.732Z,7.17
2022-10-17T03:51:34.081Z,6.47
2022-10-17T03:56:36.876Z,7.00
2022-10-17T04:01:39.665Z,6.23
2022-10-17T04:06:43.800Z,6.80
2022-10-17T04:11:46.585Z,7.07
2022-10-17T04:16:49.706Z,6.35
2022-10-17T04:21:53.767Z,5.67
2022-10-17T04:26:56.523Z,6.10
2022-10-17T04:31:59.246Z,5.75
2022-10-17T04:37:03.448Z,5.90
2022-10-17T04:42:06.173Z,5.80
2022-10-17T04:47:09.327Z,5.47
2022-10-17T04:52:16.558Z,5.70
2022-10-17T04:57:19.884Z,6.00
2022-10-17T05:02:22.747Z,5.78
2022-10-17T05:07:26.828Z,6.00
2022-10-17T05:12:29.799Z,5.60
2022-10-17T05:17:32.718Z,5.88
2022-10-17T05:22:39.670Z,5.53
2022-10-17T05:27:44.785Z,5.13
2022-10-17T05:32:47.616Z,4.80
2022-10-17T05:37:51.706Z,4.07
2022-10-17T05:42:54.442Z,3.90
2022-10-17T05:47:57.176Z,3.60
2022-10-17T05:53:01.400Z,3.60
2022-10-17T05:58:04.854Z,3.20
2022-10-17T06:03:07.565Z,3.43
2022-10-17T06:08:11.658Z,2.97
2022-10-17T06:13:14.367Z,2.90
2022-10-17T06:18:17.186Z,2.60
2022-10-17T06:23:21.287Z,2.78
2022-10-17T06:28:24.049Z,2.60
2022-10-17T06:33:26.960Z,3.00
2022-10-17T06:38:31.520Z,2.80
2022-10-17T06:43:34.228Z,2.80
2022-10-17T06:48:36.961Z,2.35
2022-10-17T06:53:41.853Z,2.50
2022-10-17T06:58:44.609Z,3.13
2022-10-17T07:03:49.592Z,2.50
2022-10-17T07:08:55.601Z,2.60
2022-10-17T07:13:58.340Z,2.38
2022-10-17T07:19:01.094Z,2.30
2022-10-17T07:24:07.089Z,2.87
2022-10-17T07:29:11.228Z,2.57
2022-10-17T07:34:13.926Z,2.70
2022-10-17T07:39:18.125Z,2.75
2022-10-17T07:44:21.051Z,2.73
2022-10-17T07:49:23.740Z,2.65
2022-10-17T07:54:27.945Z,2.70
2022-10-17T07:59:30.726Z,2.80
2022-10-17T08:04:34.783Z,3.08
2022-10-17T08:09:38.844Z,3.00
2022-10-17T08:14:41.610Z,2.93
2022-10-17T08:19:44.322Z,3.17
2022-10-17T08:24:48.467Z,3.20
2022-10-17T08:29:52.890Z,3.30
2022-10-17T08:34:56.545Z,3.13
2022-10-17T08:40:00.642Z,3.30
2022-10-17T08:45:15.547Z,3.28
2022-10-17T08:50:27.855Z,3.30
2022-10-17T08:55:38.853Z,3.45
2022-10-17T09:00:51.462Z,3.53
2022-10-17T09:06:03.139Z,3.30
2022-10-17T09:11:14.237Z,3.23
2022-10-17T09:16:34.203Z,3.33
2022-10-17T09:21:43.714Z,3.20
2022-10-17T09:26:47.889Z,3.30
2022-10-17T09:31:58.711Z,3.28
2022-10-17T09:37:03.058Z,3.33
2022-10-17T09:42:07.131Z,3.47
2022-10-17T09:47:27.031Z,3.22
2022-10-17T09:52:34.291Z,3.30
2022-10-17T10:03:18.671Z,3.40
2022-10-17T10:08:29.411Z,3.15
2022-10-17T10:13:34.083Z,3.20
2022-10-17T10:18:38.326Z,3.50
2022-10-17T10:23:43.166Z,3.00
2022-10-17T10:28:53.830Z,2.80
2022-10-17T10:34:00.079Z,3.87
2022-10-17T10:39:04.660Z,3.67
2022-10-17T10:44:07.652Z,3.30
2022-10-17T10:49:31.231Z,3.47
2022-10-17T10:59:52.782Z,3.10
2022-10-17T11:05:02.679Z,3.28
2022-10-17T11:10:13.338Z,3.17
2022-10-17T11:15:26.343Z,2.90
2022-10-17T11:20:45.086Z,3.35
2022-10-17T11:25:49.956Z,3.80
2022-10-17T11:30:58.696Z,3.80
2022-10-17T11:36:05.519Z,3.58
2022-10-17T11:41:13.113Z,3.47
2022-10-17T11:46:23.756Z,3.40
2022-10-17T11:57:14.052Z,3.55
2022-10-17T12:02:28.534Z,3.70
2022-10-17T12:12:51.335Z,3.28
2022-10-17T12:17:58.267Z,3.47
2022-10-17T12:23:20.100Z,3.40
2022-10-17T12:28:29.261Z,3.70
2022-10-17T12:33:38.784Z,3.90
2022-10-17T12:38:45.728Z,3.80
2022-10-17T12:43:52.544Z,4.07
2022-10-17T12:49:04.883Z,3.88
2022-10-17T12:54:15.988Z,4.00
2022-10-17T12:59:22.305Z,3.60
2022-10-17T13:04:26.729Z,4.55
2022-10-17T13:09:33.650Z,3.97
2022-10-17T13:14:38.770Z,5.07
2022-10-17T13:19:43.678Z,4.20
2022-10-17T13:24:49.188Z,4.10
2022-10-17T13:29:51.963Z,3.70
2022-10-17T13:35:07.253Z,4.10
2022-10-17T13:40:44.103Z,4.10
2022-10-17T13:45:48.575Z,3.80
2022-10-17T13:50:53.676Z,3.33
2022-10-17T13:56:26.297Z,3.75
2022-10-17T14:01:24.688Z,4.03
2022-10-17T14:06:29.005Z,3.93
2022-10-17T14:11:36.637Z,4.35
2022-10-17T14:16:42.271Z,4.53
2022-10-17T14:21:49.277Z,89.63
2022-10-17T14:26:55.013Z,53.45
2022-10-17T14:32:00.808Z,39.88
2022-10-17T14:37:09.642Z,15.60
2022-10-17T14:42:21.152Z,5.10
2022-10-17T14:47:42.609Z,4.68
2022-10-17T14:53:00.195Z,4.50
2022-10-17T14:58:17.703Z,4.30
2022-10-17T15:03:20.963Z,4.28
2022-10-17T15:08:24.978Z,4.20
2022-10-17T15:13:31.224Z,4.10
2022-10-17T15:18:36.598Z,4.07
2022-10-17T15:23:39.345Z,4.45
2022-10-17T15:28:44.003Z,4.70
2022-10-17T15:33:48.004Z,4.20
2022-10-17T15:38:52.333Z,4.50
2022-10-17T15:43:56.351Z,5.60
2022-10-17T15:49:04.749Z,4.87
2022-10-17T15:54:08.277Z,4.70
2022-10-17T15:59:16.701Z,27.70
2022-10-17T16:04:19.835Z,54.90
2022-10-17T16:09:22.552Z,64.03
2022-10-17T16:14:26.883Z,106.10
2022-10-17T16:19:30.136Z,45.50
2022-10-17T16:24:33.533Z,13.45
2022-10-17T16:29:37.675Z,76.40
2022-10-17T16:34:40.384Z,8.00
2022-10-17T16:39:43.378Z,7.00
2022-10-17T16:44:48.092Z,34.65
2022-10-17T16:49:50.909Z,25.25
2022-10-17T16:54:53.732Z,46.80
2022-10-17T16:59:58.015Z,73.82
2022-10-17T17:05:00.763Z,33.10
2022-10-17T17:10:03.615Z,65.47
2022-10-17T17:15:08.704Z,110.03
2022-10-17T17:20:11.555Z,103.63
2022-10-17T17:25:14.518Z,56.50
2022-10-17T17:30:18.775Z,66.60
2022-10-17T17:35:21.757Z,57.40
2022-10-17T17:40:24.501Z,85.75
2022-10-17T17:45:29.048Z,11.77
2022-10-17T17:50:32.828Z,33.40
2022-10-17T17:55:36.089Z,137.68
2022-10-17T18:00:41.511Z,17.73
2022-10-17T18:05:44.229Z,22.58
2022-10-17T18:10:49.495Z,9.70
2022-10-17T18:15:58.188Z,7.73
2022-10-17T18:21:02.802Z,5.73
2022-10-17T18:26:05.880Z,7.82
2022-10-17T18:31:13.200Z,11.48
2022-10-17T18:36:16.655Z,5.10
2022-10-17T18:41:21.316Z,16.95
2022-10-17T18:46:27.193Z,15.38
2022-10-17T18:51:30.061Z,14.97
2022-10-17T18:56:32.953Z,9.90
2022-10-17T19:01:37.112Z,12.68
2022-10-17T19:06:40.758Z,8.27
2022-10-17T19:11:43.643Z,5.70
2022-10-17T19:16:50.889Z,10.80
2022-10-17T19:21:54.146Z,11.52
2022-10-17T19:26:59.358Z,6.27
2022-10-17T19:32:03.604Z,5.82
2022-10-17T19:37:06.459Z,8.77
2022-10-17T19:42:09.197Z,6.20
2022-10-17T19:47:13.299Z,7.38
2022-10-17T19:52:16.016Z,9.40
2022-10-17T19:57:18.764Z,7.30
2022-10-17T20:02:22.860Z,9.23
2022-10-17T20:07:25.665Z,7.20
2022-10-17T20:12:28.693Z,8.95
2022-10-17T20:22:40.925Z,7.22
2022-10-17T20:27:43.716Z,6.93
2022-10-17T20:32:47.827Z,8.00
2022-10-17T20:37:50.936Z,9.70
2022-10-17T20:42:53.679Z,7.70
2022-10-17T20:47:58.225Z,7.67
2022-10-17T20:53:31.276Z,7.10
2022-10-17T20:58:24.104Z,7.85
2022-10-17T21:03:29.048Z,8.43
2022-10-17T21:08:31.965Z,8.07
2022-10-17T21:13:34.659Z,8.57
2022-10-17T21:18:39.249Z,8.43
2022-10-17T21:23:43.334Z,8.70
2022-10-17T21:28:47.629Z,8.50
2022-10-17T21:33:54.164Z,8.30
2022-10-17T21:38:58.051Z,8.90
2022-10-17T21:44:02.674Z,8.57
2022-10-17T21:49:06.818Z,9.45
2022-10-17T21:54:10.163Z,9.10
2022-10-17T21:59:13.201Z,8.97
2022-10-17T22:04:18.885Z,8.98
2022-10-17T22:09:25.046Z,9.68
2022-10-17T22:14:28.728Z,8.50
2022-10-17T22:19:32.857Z,8.88
2022-10-17T22:24:35.772Z,8.35
2022-10-17T22:29:39.609Z,8.23
2022-10-17T22:34:43.734Z,7.93
2022-10-17T22:39:46.431Z,8.40
2022-10-17T22:44:49.745Z,8.75
2022-10-17T22:49:53.861Z,8.77
2022-10-17T22:54:56.585Z,8.70
2022-10-17T22:59:59.270Z,8.73
2022-10-17T23:05:03.829Z,8.73
2022-10-17T23:10:07.974Z,8.85
2022-10-17T23:15:11.392Z,9.10
2022-10-17T23:20:15.516Z,8.90
2022-10-17T23:25:18.461Z,9.30
2022-10-17T23:30:21.454Z,8.48
2022-10-17T23:35:25.572Z,9.18
2022-10-17T23:40:28.418Z,7.30
2022-10-17T23:45:36.019Z,8.90
2022-10-17T23:50:41.135Z,7.70
2022-10-17T23:55:43.851Z,7.87
